sensor_id;sensor_type;location;lat;lon;timestamp;noise_LAeq;noise_LA_min;noise_LA_max;noise_LA01;noise_LA95
64077;Laerm;51039;49.696;10.808;2023-07-31T00:01:52;5.00;5.00;5.00;;
64077;Laerm;51039;49.696;10.808;2023-07-31T00:04:17;5.00;5.00;5.00;;
64077;Laerm;51039;49.696;10.808;2023-07-31T00:06:43;5.00;5.00;5.00;;
64077;Laerm;51039;49.696;10.808;2023-07-31T00:09:08;5.00;5.00;5.00;;
64077;Laerm;51039;49.696;10.808;2023-07-31T00:11:33;5.00;5.00;5.00;;
64077;Laerm;51039;49.696;10.808;2023-07-31T00:13:59;5.00;5.00;5.00;;
64077;Laerm;51039;49.696;10.808;2023-07-31T00:16:24;5.00;5.00;5.00;;
64077;Laerm;51039;49.696;10.808;2023-07-31T00:18:49;5.00;5.00;5.00;;
64077;Laerm;51039;49.696;10.808;2023-07-31T00:21:15;5.00;5.00;5.00;;
64077;Laerm;51039;49.696;10.808;2023-07-31T00:23:40;5.00;5.00;5.00;;
64077;Laerm;51039;49.696;10.808;2023-07-31T00:26:05;5.00;5.00;5.00;;
64077;Laerm;51039;49.696;10.808;2023-07-31T00:28:31;5.00;5.00;5.00;;
64077;Laerm;51039;49.696;10.808;2023-07-31T00:30:56;5.00;5.00;5.00;;
64077;Laerm;51039;49.696;10.808;2023-07-31T00:33:21;5.00;5.00;5.00;;
64077;Laerm;51039;49.696;10.808;2023-07-31T00:35:48;5.00;5.00;5.00;;
64077;Laerm;51039;49.696;10.808;2023-07-31T00:38:14;5.00;5.00;5.00;;
64077;Laerm;51039;49.696;10.808;2023-07-31T00:40:39;5.00;5.00;5.00;;
64077;Laerm;51039;49.696;10.808;2023-07-31T00:43:05;5.00;5.00;5.00;;
64077;Laerm;51039;49.696;10.808;2023-07-31T00:45:30;5.00;5.00;5.00;;
64077;Laerm;51039;49.696;10.808;2023-07-31T00:47:56;5.00;5.00;5.00;;
64077;Laerm;51039;49.696;10.808;2023-07-31T00:50:24;5.00;5.00;5.00;;
64077;Laerm;51039;49.696;10.808;2023-07-31T00:52:49;5.00;5.00;5.00;;
64077;Laerm;51039;49.696;10.808;2023-07-31T00:55:15;5.00;5.00;5.00;;
64077;Laerm;51039;49.696;10.808;2023-07-31T00:57:41;5.00;5.00;5.00;;
64077;Laerm;51039;49.696;10.808;2023-07-31T01:00:07;5.00;5.00;5.00;;
64077;Laerm;51039;49.696;10.808;2023-07-31T01:02:33;5.00;5.00;5.00;;
64077;Laerm;51039;49.696;10.808;2023-07-31T01:04:58;41.30;5.00;53.88;;
64077;Laerm;51039;49.696;10.808;2023-07-31T01:07:47;43.24;41.92;44.30;;
64077;Laerm;51039;49.696;10.808;2023-07-31T01:10:21;43.28;42.04;45.32;;
64077;Laerm;51039;49.696;10.808;2023-07-31T01:12:48;43.30;42.10;45.24;;
64077;Laerm;51039;49.696;10.808;2023-07-31T01:15:13;43.29;41.79;44.58;;
64077;Laerm;51039;49.696;10.808;2023-07-31T01:17:41;83.49;30.23;111.23;;
64077;Laerm;51039;49.696;10.808;2023-07-31T01:20:16;43.29;42.14;44.38;;
64077;Laerm;51039;49.696;10.808;2023-07-31T01:23:01;43.29;41.88;45.13;;
64077;Laerm;51039;49.696;10.808;2023-07-31T01:28:58;65.67;-334.33;99.79;;
64077;Laerm;51039;49.696;10.808;2023-07-31T01:31:28;5.00;5.00;5.00;;
64077;Laerm;51039;49.696;10.808;2023-07-31T01:33:57;5.00;5.00;5.00;;
64077;Laerm;51039;49.696;10.808;2023-07-31T01:36:25;65.03;5.00;99.29;;
64077;Laerm;51039;49.696;10.808;2023-07-31T01:38:50;75.84;42.15;107.65;;
64077;Laerm;51039;49.696;10.808;2023-07-31T01:41:19;43.38;42.13;45.33;;
64077;Laerm;51039;49.696;10.808;2023-07-31T01:43:47;43.39;42.11;44.96;;
64077;Laerm;51039;49.696;10.808;2023-07-31T01:46:13;92.40;27.19;113.17;;
64077;Laerm;51039;49.696;10.808;2023-07-31T01:48:38;105.07;-323.53;113.73;;
64077;Laerm;51039;49.696;10.808;2023-07-31T01:51:04;43.36;42.11;44.38;;
64077;Laerm;51039;49.696;10.808;2023-07-31T01:53:31;66.55;42.16;99.53;;
64077;Laerm;51039;49.696;10.808;2023-07-31T01:55:56;82.51;42.15;110.28;;
64077;Laerm;51039;49.696;10.808;2023-07-31T01:58:21;43.36;41.94;44.47;;
64077;Laerm;51039;49.696;10.808;2023-07-31T02:00:47;43.38;42.22;44.57;;
64077;Laerm;51039;49.696;10.808;2023-07-31T02:03:12;43.37;42.19;44.82;;
64077;Laerm;51039;49.696;10.808;2023-07-31T02:05:47;67.14;42.23;102.02;;
64077;Laerm;51039;49.696;10.808;2023-07-31T02:08:13;43.38;42.20;46.77;;
64077;Laerm;51039;49.696;10.808;2023-07-31T02:10:38;76.85;42.11;106.75;;
64077;Laerm;51039;49.696;10.808;2023-07-31T02:13:04;43.34;42.08;44.33;;
64077;Laerm;51039;49.696;10.808;2023-07-31T02:15:30;43.36;42.10;46.23;;
64077;Laerm;51039;49.696;10.808;2023-07-31T02:17:56;43.33;42.14;45.40;;
64077;Laerm;51039;49.696;10.808;2023-07-31T02:20:21;69.17;42.12;104.57;;
64077;Laerm;51039;49.696;10.808;2023-07-31T02:22:46;74.11;42.08;106.91;;
64077;Laerm;51039;49.696;10.808;2023-07-31T02:25:12;43.30;42.14;44.35;;
64077;Laerm;51039;49.696;10.808;2023-07-31T02:27:37;43.31;41.99;44.50;;
64077;Laerm;51039;49.696;10.808;2023-07-31T02:30:02;43.30;42.15;44.45;;
64077;Laerm;51039;49.696;10.808;2023-07-31T02:32:28;43.30;42.08;44.49;;
64077;Laerm;51039;49.696;10.808;2023-07-31T02:34:53;43.30;42.14;44.70;;
64077;Laerm;51039;49.696;10.808;2023-07-31T02:37:18;43.34;42.23;44.57;;
64077;Laerm;51039;49.696;10.808;2023-07-31T02:39:44;43.33;42.13;44.95;;
64077;Laerm;51039;49.696;10.808;2023-07-31T02:42:09;43.36;42.17;44.60;;
64077;Laerm;51039;49.696;10.808;2023-07-31T02:44:34;43.36;42.14;45.72;;
64077;Laerm;51039;49.696;10.808;2023-07-31T02:47:00;43.37;42.05;44.58;;
64077;Laerm;51039;49.696;10.808;2023-07-31T02:49:25;80.82;42.20;111.28;;
64077;Laerm;51039;49.696;10.808;2023-07-31T02:51:50;66.57;42.15;99.25;;
64077;Laerm;51039;49.696;10.808;2023-07-31T02:54:16;43.40;42.17;46.97;;
64077;Laerm;51039;49.696;10.808;2023-07-31T02:56:41;83.10;42.24;111.85;;
64077;Laerm;51039;49.696;10.808;2023-07-31T02:59:06;79.86;30.75;112.25;;
64077;Laerm;51039;49.696;10.808;2023-07-31T03:01:32;43.46;42.06;48.73;;
64077;Laerm;51039;49.696;10.808;2023-07-31T03:03:57;43.45;42.16;44.75;;
64077;Laerm;51039;49.696;10.808;2023-07-31T03:06:22;85.07;9.99;111.24;;
64077;Laerm;51039;49.696;10.808;2023-07-31T03:08:48;101.40;-159.98;114.09;;
64077;Laerm;51039;49.696;10.808;2023-07-31T03:11:13;99.87;42.43;113.60;;
64077;Laerm;51039;49.696;10.808;2023-07-31T03:13:38;105.93;-52.16;114.12;;
64077;Laerm;51039;49.696;10.808;2023-07-31T03:16:04;68.56;42.11;88.52;;
64077;Laerm;51039;49.696;10.808;2023-07-31T03:18:29;97.64;42.48;113.64;;
64077;Laerm;51039;49.696;10.808;2023-07-31T03:20:54;84.26;42.43;112.71;;
64077;Laerm;51039;49.696;10.808;2023-07-31T03:23:20;43.55;42.34;44.92;;
64077;Laerm;51039;49.696;10.808;2023-07-31T03:26:03;99.28;-325.88;113.46;;
64077;Laerm;51039;49.696;10.808;2023-07-31T03:28:29;102.81;42.32;113.77;;
64077;Laerm;51039;49.696;10.808;2023-07-31T03:30:55;75.54;42.42;90.28;;
64077;Laerm;51039;49.696;10.808;2023-07-31T03:33:20;82.79;42.44;107.30;;
64077;Laerm;51039;49.696;10.808;2023-07-31T03:35:45;107.14;-89.80;114.12;;
64077;Laerm;51039;49.696;10.808;2023-07-31T03:38:11;104.98;-325.88;114.05;;
64077;Laerm;51039;49.696;10.808;2023-07-31T03:40:36;100.24;27.10;113.98;;
64077;Laerm;51039;49.696;10.808;2023-07-31T03:43:02;107.14;-68.10;114.37;;
64077;Laerm;51039;49.696;10.808;2023-07-31T03:45:27;96.51;42.58;113.34;;
64077;Laerm;51039;49.696;10.808;2023-07-31T03:47:52;105.45;16.16;113.87;;
64077;Laerm;51039;49.696;10.808;2023-07-31T03:50:19;52.83;42.39;85.51;;
64077;Laerm;51039;49.696;10.808;2023-07-31T03:52:45;92.14;21.21;113.39;;
64077;Laerm;51039;49.696;10.808;2023-07-31T03:55:10;61.68;42.48;85.51;;
64077;Laerm;51039;49.696;10.808;2023-07-31T03:57:36;72.10;42.49;88.52;;
64077;Laerm;51039;49.696;10.808;2023-07-31T04:00:01;102.04;42.32;113.73;;
64077;Laerm;51039;49.696;10.808;2023-07-31T04:02:26;101.32;-323.91;113.64;;
64077;Laerm;51039;49.696;10.808;2023-07-31T04:04:52;110.47;-16.51;113.91;;
64077;Laerm;51039;49.696;10.808;2023-07-31T04:07:17;108.97;-65.18;113.97;;
64077;Laerm;51039;49.696;10.808;2023-07-31T04:09:42;100.78;39.40;114.17;;
64077;Laerm;51039;49.696;10.808;2023-07-31T04:12:08;106.29;1.00;113.99;;
64077;Laerm;51039;49.696;10.808;2023-07-31T04:14:33;102.51;42.57;114.09;;
64077;Laerm;51039;49.696;10.808;2023-07-31T04:16:58;103.63;42.76;113.79;;
64077;Laerm;51039;49.696;10.808;2023-07-31T04:19:24;82.70;42.39;105.50;;
64077;Laerm;51039;49.696;10.808;2023-07-31T04:21:49;99.88;42.40;113.89;;
64077;Laerm;51039;49.696;10.808;2023-07-31T04:24:15;107.49;42.62;114.16;;
64077;Laerm;51039;49.696;10.808;2023-07-31T04:26:40;102.90;-95.61;113.46;;
64077;Laerm;51039;49.696;10.808;2023-07-31T04:29:05;58.60;42.25;94.66;;
64077;Laerm;51039;49.696;10.808;2023-07-31T04:31:31;43.61;42.47;46.05;;
64077;Laerm;51039;49.696;10.808;2023-07-31T04:33:56;77.03;36.69;109.14;;
64077;Laerm;51039;49.696;10.808;2023-07-31T04:36:21;87.75;23.68;112.68;;
64077;Laerm;51039;49.696;10.808;2023-07-31T04:38:47;43.69;42.38;44.86;;
64077;Laerm;51039;49.696;10.808;2023-07-31T04:41:12;43.63;42.43;44.82;;
64077;Laerm;51039;49.696;10.808;2023-07-31T04:43:37;67.41;42.45;103.53;;
64077;Laerm;51039;49.696;10.808;2023-07-31T04:46:05;43.62;42.36;44.91;;
64077;Laerm;51039;49.696;10.808;2023-07-31T04:48:30;43.66;42.56;44.88;;
64077;Laerm;51039;49.696;10.808;2023-07-31T04:50:56;43.63;42.51;44.66;;
64077;Laerm;51039;49.696;10.808;2023-07-31T04:53:21;43.63;42.42;44.81;;
64077;Laerm;51039;49.696;10.808;2023-07-31T04:55:46;43.62;42.32;44.90;;
64077;Laerm;51039;49.696;10.808;2023-07-31T04:58:12;44.52;42.47;73.47;;
64077;Laerm;51039;49.696;10.808;2023-07-31T05:00:37;43.67;42.28;44.95;;
64077;Laerm;51039;49.696;10.808;2023-07-31T05:03:02;43.72;42.43;45.02;;
64077;Laerm;51039;49.696;10.808;2023-07-31T05:05:28;43.73;42.26;45.87;;
64077;Laerm;51039;49.696;10.808;2023-07-31T05:07:53;43.73;42.29;45.16;;
64077;Laerm;51039;49.696;10.808;2023-07-31T05:10:18;43.79;42.41;45.72;;
64077;Laerm;51039;49.696;10.808;2023-07-31T05:12:44;43.78;42.37;45.08;;
64077;Laerm;51039;49.696;10.808;2023-07-31T05:15:09;58.12;42.58;94.17;;
64077;Laerm;51039;49.696;10.808;2023-07-31T05:17:35;66.45;42.53;102.64;;
64077;Laerm;51039;49.696;10.808;2023-07-31T05:20:00;43.78;42.49;46.09;;
64077;Laerm;51039;49.696;10.808;2023-07-31T05:22:25;66.70;42.56;102.29;;
64077;Laerm;51039;49.696;10.808;2023-07-31T05:24:51;43.86;42.48;45.90;;
64077;Laerm;51039;49.696;10.808;2023-07-31T05:27:16;43.83;42.62;46.36;;
64077;Laerm;51039;49.696;10.808;2023-07-31T05:29:44;43.84;42.51;45.51;;
64077;Laerm;51039;49.696;10.808;2023-07-31T05:32:09;43.92;42.77;45.75;;
64077;Laerm;51039;49.696;10.808;2023-07-31T05:34:35;43.87;42.71;46.05;;
64077;Laerm;51039;49.696;10.808;2023-07-31T05:37:00;43.85;42.49;45.88;;
64077;Laerm;51039;49.696;10.808;2023-07-31T05:39:25;43.97;42.43;45.73;;
64077;Laerm;51039;49.696;10.808;2023-07-31T05:41:51;43.95;42.67;45.43;;
64077;Laerm;51039;49.696;10.808;2023-07-31T05:44:16;61.49;42.53;85.51;;
64077;Laerm;51039;49.696;10.808;2023-07-31T05:46:41;61.43;42.76;85.51;;
64077;Laerm;51039;49.696;10.808;2023-07-31T05:49:07;63.97;42.61;88.52;;
64077;Laerm;51039;49.696;10.808;2023-07-31T05:51:32;71.03;42.57;99.07;;
64077;Laerm;51039;49.696;10.808;2023-07-31T05:53:57;65.47;42.98;85.51;;
64077;Laerm;51039;49.696;10.808;2023-07-31T05:56:23;62.38;43.10;85.52;;
64077;Laerm;51039;49.696;10.808;2023-07-31T05:58:48;69.46;42.93;88.48;;
64077;Laerm;51039;49.696;10.808;2023-07-31T06:01:16;64.74;43.02;88.52;;
64077;Laerm;51039;49.696;10.808;2023-07-31T06:03:41;50.47;42.98;85.51;;
64077;Laerm;51039;49.696;10.808;2023-07-31T06:06:06;55.66;42.92;85.51;;
64077;Laerm;51039;49.696;10.808;2023-07-31T06:08:32;63.34;43.15;85.51;;
64077;Laerm;51039;49.696;10.808;2023-07-31T06:10:58;97.84;43.25;113.73;;
64077;Laerm;51039;49.696;10.808;2023-07-31T06:13:23;44.47;43.29;48.13;;
64077;Laerm;51039;49.696;10.808;2023-07-31T06:15:48;44.44;43.33;45.66;;
64077;Laerm;51039;49.696;10.808;2023-07-31T06:18:14;44.45;42.49;46.10;;
64077;Laerm;51039;49.696;10.808;2023-07-31T06:20:39;44.42;43.15;45.87;;
64077;Laerm;51039;49.696;10.808;2023-07-31T06:23:05;44.37;43.22;45.97;;
64077;Laerm;51039;49.696;10.808;2023-07-31T06:25:31;57.95;43.06;85.51;;
64077;Laerm;51039;49.696;10.808;2023-07-31T06:27:56;56.57;43.02;85.51;;
64077;Laerm;51039;49.696;10.808;2023-07-31T06:30:21;52.96;43.27;85.51;;
64077;Laerm;51039;49.696;10.808;2023-07-31T06:32:47;56.56;43.08;85.51;;
64077;Laerm;51039;49.696;10.808;2023-07-31T06:35:12;50.49;43.09;85.50;;
64077;Laerm;51039;49.696;10.808;2023-07-31T06:37:37;50.49;43.11;85.51;;
64077;Laerm;51039;49.696;10.808;2023-07-31T06:40:06;50.45;43.05;85.51;;
64077;Laerm;51039;49.696;10.808;2023-07-31T06:42:34;50.45;43.07;85.51;;
64077;Laerm;51039;49.696;10.808;2023-07-31T06:45:00;52.94;43.12;85.51;;
64077;Laerm;51039;49.696;10.808;2023-07-31T06:47:25;52.96;43.25;85.51;;
64077;Laerm;51039;49.696;10.808;2023-07-31T06:49:51;58.50;43.09;85.51;;
64077;Laerm;51039;49.696;10.808;2023-07-31T06:52:16;105.42;-40.77;114.15;;
64077;Laerm;51039;49.696;10.808;2023-07-31T06:54:42;81.85;43.40;106.11;;
64077;Laerm;51039;49.696;10.808;2023-07-31T06:57:07;75.53;43.49;106.44;;
64077;Laerm;51039;49.696;10.808;2023-07-31T06:59:33;75.74;43.53;90.28;;
64077;Laerm;51039;49.696;10.808;2023-07-31T07:01:58;76.37;43.41;90.28;;
64077;Laerm;51039;49.696;10.808;2023-07-31T07:04:24;89.11;43.48;110.96;;
64077;Laerm;51039;49.696;10.808;2023-07-31T07:06:49;110.09;43.92;114.03;;
64077;Laerm;51039;49.696;10.808;2023-07-31T07:09:14;106.29;-16.87;114.10;;
64077;Laerm;51039;49.696;10.808;2023-07-31T07:11:39;101.72;-334.33;113.74;;
64077;Laerm;51039;49.696;10.808;2023-07-31T07:14:05;108.36;-324.78;114.14;;
64077;Laerm;51039;49.696;10.808;2023-07-31T07:16:30;108.68;43.96;114.11;;
64077;Laerm;51039;49.696;10.808;2023-07-31T07:18:56;108.08;-39.48;114.10;;
64077;Laerm;51039;49.696;10.808;2023-07-31T07:21:21;103.68;11.73;113.79;;
64077;Laerm;51039;49.696;10.808;2023-07-31T07:23:46;100.85;43.49;113.45;;
64077;Laerm;51039;49.696;10.808;2023-07-31T07:26:12;90.09;43.65;109.42;;
64077;Laerm;51039;49.696;10.808;2023-07-31T07:28:37;81.04;43.70;103.24;;
64077;Laerm;51039;49.696;10.808;2023-07-31T07:31:03;80.43;43.57;103.56;;
64077;Laerm;51039;49.696;10.808;2023-07-31T07:33:28;84.84;43.51;106.53;;
64077;Laerm;51039;49.696;10.808;2023-07-31T07:35:53;78.28;43.33;99.09;;
64077;Laerm;51039;49.696;10.808;2023-07-31T07:38:19;88.23;43.57;108.70;;
64077;Laerm;51039;49.696;10.808;2023-07-31T07:40:44;101.73;43.80;113.30;;
64077;Laerm;51039;49.696;10.808;2023-07-31T07:43:12;100.50;43.62;113.05;;
64077;Laerm;51039;49.696;10.808;2023-07-31T07:45:37;92.68;43.65;111.39;;
64077;Laerm;51039;49.696;10.808;2023-07-31T07:48:02;77.23;43.60;90.28;;
64077;Laerm;51039;49.696;10.808;2023-07-31T07:50:28;77.48;43.71;98.67;;
64077;Laerm;51039;49.696;10.808;2023-07-31T07:52:53;100.07;43.72;114.04;;
64077;Laerm;51039;49.696;10.808;2023-07-31T07:55:19;103.93;43.79;113.96;;
64077;Laerm;51039;49.696;10.808;2023-07-31T07:57:44;74.36;43.93;88.64;;
64077;Laerm;51039;49.696;10.808;2023-07-31T08:00:11;75.58;44.08;89.12;;
64077;Laerm;51039;49.696;10.808;2023-07-31T08:02:37;76.25;43.94;89.87;;
64077;Laerm;51039;49.696;10.808;2023-07-31T08:05:02;110.72;-0.50;114.22;;
64077;Laerm;51039;49.696;10.808;2023-07-31T08:07:28;108.77;44.57;114.24;;
64077;Laerm;51039;49.696;10.808;2023-07-31T08:09:53;101.33;44.51;113.35;;
64077;Laerm;51039;49.696;10.808;2023-07-31T08:12:19;106.17;44.38;114.01;;
64077;Laerm;51039;49.696;10.808;2023-07-31T08:14:44;107.35;44.66;114.01;;
64077;Laerm;51039;49.696;10.808;2023-07-31T08:17:09;107.98;44.53;114.29;;
64077;Laerm;51039;49.696;10.808;2023-07-31T08:19:35;105.32;44.49;114.25;;
64077;Laerm;51039;49.696;10.808;2023-07-31T08:22:00;110.61;45.09;114.32;;
64077;Laerm;51039;49.696;10.808;2023-07-31T08:24:25;110.86;44.99;114.19;;
64077;Laerm;51039;49.696;10.808;2023-07-31T08:26:51;110.91;45.24;114.36;;
64077;Laerm;51039;49.696;10.808;2023-07-31T08:29:16;107.05;44.36;114.13;;
64077;Laerm;51039;49.696;10.808;2023-07-31T08:31:41;104.28;44.19;113.89;;
64077;Laerm;51039;49.696;10.808;2023-07-31T08:34:07;93.91;44.49;111.15;;
64077;Laerm;51039;49.696;10.808;2023-07-31T08:36:32;83.90;44.32;106.45;;
64077;Laerm;51039;49.696;10.808;2023-07-31T08:38:57;73.48;44.42;88.52;;
64077;Laerm;51039;49.696;10.808;2023-07-31T08:41:23;76.50;44.66;94.41;;
64077;Laerm;51039;49.696;10.808;2023-07-31T08:43:50;105.33;44.84;113.75;;
64077;Laerm;51039;49.696;10.808;2023-07-31T08:46:16;98.80;44.71;113.08;;
64077;Laerm;51039;49.696;10.808;2023-07-31T08:48:42;96.02;44.68;113.50;;
64077;Laerm;51039;49.696;10.808;2023-07-31T08:51:09;81.03;44.81;104.10;;
64077;Laerm;51039;49.696;10.808;2023-07-31T08:53:35;108.06;44.70;114.31;;
64077;Laerm;51039;49.696;10.808;2023-07-31T08:56:00;111.91;92.22;114.47;;
64077;Laerm;51039;49.696;10.808;2023-07-31T08:58:31;108.33;-12.25;114.28;;
64077;Laerm;51039;49.696;10.808;2023-07-31T09:00:59;105.01;44.82;113.65;;
64077;Laerm;51039;49.696;10.808;2023-07-31T09:03:26;100.09;44.49;112.82;;
64077;Laerm;51039;49.696;10.808;2023-07-31T09:05:51;65.79;44.47;88.52;;
64077;Laerm;51039;49.696;10.808;2023-07-31T09:08:20;45.88;44.70;47.20;;
64077;Laerm;51039;49.696;10.808;2023-07-31T09:10:46;45.91;44.64;48.32;;
64077;Laerm;51039;49.696;10.808;2023-07-31T09:13:13;45.92;44.75;47.31;;
64077;Laerm;51039;49.696;10.808;2023-07-31T09:15:39;45.92;44.61;47.49;;
64077;Laerm;51039;49.696;10.808;2023-07-31T09:18:06;45.90;44.62;47.05;;
64077;Laerm;51039;49.696;10.808;2023-07-31T09:20:32;45.90;44.54;47.17;;
64077;Laerm;51039;49.696;10.808;2023-07-31T09:23:13;45.90;44.45;48.08;;
64077;Laerm;51039;49.696;10.808;2023-07-31T09:25:40;45.89;44.55;47.07;;
64077;Laerm;51039;49.696;10.808;2023-07-31T09:28:11;45.92;44.46;48.16;;
64077;Laerm;51039;49.696;10.808;2023-07-31T09:30:48;52.91;44.60;85.51;;
64077;Laerm;51039;49.696;10.808;2023-07-31T09:33:15;55.74;44.58;85.51;;
64077;Laerm;51039;49.696;10.808;2023-07-31T09:35:41;64.47;44.54;91.05;;
64077;Laerm;51039;49.696;10.808;2023-07-31T09:38:09;69.65;44.62;88.52;;
64077;Laerm;51039;49.696;10.808;2023-07-31T09:40:36;67.54;44.68;88.48;;
64077;Laerm;51039;49.696;10.808;2023-07-31T09:43:04;70.92;44.64;88.52;;
64077;Laerm;51039;49.696;10.808;2023-07-31T09:45:34;72.87;44.50;88.53;;
64077;Laerm;51039;49.696;10.808;2023-07-31T09:47:59;67.91;44.53;88.47;;
64077;Laerm;51039;49.696;10.808;2023-07-31T09:50:25;63.53;44.55;85.52;;
64077;Laerm;51039;49.696;10.808;2023-07-31T09:52:51;65.13;44.68;88.52;;
64077;Laerm;51039;49.696;10.808;2023-07-31T09:55:17;68.56;44.47;85.52;;
64077;Laerm;51039;49.696;10.808;2023-07-31T09:57:47;64.29;44.43;85.51;;
64077;Laerm;51039;49.696;10.808;2023-07-31T10:00:18;66.69;44.84;88.48;;
64077;Laerm;51039;49.696;10.808;2023-07-31T10:02:46;66.54;44.69;88.52;;
64077;Laerm;51039;49.696;10.808;2023-07-31T10:05:14;69.84;44.58;88.40;;
64077;Laerm;51039;49.696;10.808;2023-07-31T10:07:42;68.33;44.59;88.52;;
64077;Laerm;51039;49.696;10.808;2023-07-31T10:10:08;67.18;44.60;85.52;;
64077;Laerm;51039;49.696;10.808;2023-07-31T10:12:37;65.16;44.26;85.52;;
64077;Laerm;51039;49.696;10.808;2023-07-31T10:15:03;95.22;44.76;113.69;;
64077;Laerm;51039;49.696;10.808;2023-07-31T10:17:30;101.03;-324.33;113.95;;
64077;Laerm;51039;49.696;10.808;2023-07-31T10:19:57;107.62;-163.86;114.29;;
64077;Laerm;51039;49.696;10.808;2023-07-31T10:22:23;72.61;-325.88;98.32;;
64077;Laerm;51039;49.696;10.808;2023-07-31T10:24:50;107.84;-150.21;114.32;;
64077;Laerm;51039;49.696;10.808;2023-07-31T10:27:15;111.72;-11.23;114.36;;
64077;Laerm;51039;49.696;10.808;2023-07-31T10:29:43;107.24;-107.98;114.28;;
64077;Laerm;51039;49.696;10.808;2023-07-31T10:32:10;103.61;-324.33;113.63;;
64077;Laerm;51039;49.696;10.808;2023-07-31T10:34:39;5.00;5.00;5.00;;
64077;Laerm;51039;49.696;10.808;2023-07-31T10:37:31;5.00;5.00;5.00;;
64077;Laerm;51039;49.696;10.808;2023-07-31T10:40:05;5.00;5.00;5.00;;
64077;Laerm;51039;49.696;10.808;2023-07-31T10:42:38;92.67;-334.33;109.94;;
64077;Laerm;51039;49.696;10.808;2023-07-31T10:45:10;98.18;-328.31;113.61;;
64077;Laerm;51039;49.696;10.808;2023-07-31T10:47:44;70.41;-195.57;94.45;;
64077;Laerm;51039;49.696;10.808;2023-07-31T10:50:16;60.90;-328.31;82.63;;
64077;Laerm;51039;49.696;10.808;2023-07-31T10:52:50;105.27;-50.53;113.61;;
64077;Laerm;51039;49.696;10.808;2023-07-31T10:55:39;91.70;-325.30;111.11;;
64077;Laerm;51039;49.696;10.808;2023-07-31T10:58:09;47.63;-328.31;79.49;;
64077;Laerm;51039;49.696;10.808;2023-07-31T11:00:43;5.00;5.00;5.00;;
64077;Laerm;51039;49.696;10.808;2023-07-31T11:03:19;51.16;-331.32;79.49;;
64077;Laerm;51039;49.696;10.808;2023-07-31T11:06:03;42.76;-329.56;79.49;;
64077;Laerm;51039;49.696;10.808;2023-07-31T11:08:32;5.00;5.00;5.00;;
64077;Laerm;51039;49.696;10.808;2023-07-31T11:13:27;5.00;5.00;5.00;;
64077;Laerm;51039;49.696;10.808;2023-07-31T11:15:52;5.00;5.00;5.00;;
64077;Laerm;51039;49.696;10.808;2023-07-31T11:18:17;5.00;5.00;5.00;;
64077;Laerm;51039;49.696;10.808;2023-07-31T11:20:43;5.00;5.00;5.00;;
64077;Laerm;51039;49.696;10.808;2023-07-31T11:23:10;5.00;5.00;5.00;;
64077;Laerm;51039;49.696;10.808;2023-07-31T11:25:39;5.00;5.00;5.00;;
64077;Laerm;51039;49.696;10.808;2023-07-31T11:28:10;9.03;-325.30;43.37;;
64077;Laerm;51039;49.696;10.808;2023-07-31T11:30:37;5.00;5.00;5.00;;
64077;Laerm;51039;49.696;10.808;2023-07-31T11:33:03;5.00;5.00;5.00;;
64077;Laerm;51039;49.696;10.808;2023-07-31T11:35:49;61.73;-328.31;86.50;;
64077;Laerm;51039;49.696;10.808;2023-07-31T11:38:41;66.07;-151.81;86.17;;
64077;Laerm;51039;49.696;10.808;2023-07-31T11:41:06;63.12;-142.68;85.51;;
64077;Laerm;51039;49.696;10.808;2023-07-31T11:43:32;79.59;-87.40;102.63;;
64077;Laerm;51039;49.696;10.808;2023-07-31T11:45:59;100.23;-334.33;114.07;;
64077;Laerm;51039;49.696;10.808;2023-07-31T11:48:33;109.26;44.84;114.40;;
64077;Laerm;51039;49.696;10.808;2023-07-31T11:51:04;111.96;46.39;114.38;;
64077;Laerm;51039;49.696;10.808;2023-07-31T11:53:52;111.15;45.24;114.38;;
64077;Laerm;51039;49.696;10.808;2023-07-31T11:56:20;112.50;103.06;114.62;;
64077;Laerm;51039;49.696;10.808;2023-07-31T11:58:47;112.76;105.15;114.52;;
64077;Laerm;51039;49.696;10.808;2023-07-31T12:01:18;112.02;89.63;114.73;;
64077;Laerm;51039;49.696;10.808;2023-07-31T12:03:45;109.15;51.03;114.11;;
64077;Laerm;51039;49.696;10.808;2023-07-31T12:06:11;102.16;-51.22;113.49;;
64077;Laerm;51039;49.696;10.808;2023-07-31T12:08:36;101.74;-9.48;112.80;;
64077;Laerm;51039;49.696;10.808;2023-07-31T12:11:04;90.20;-44.62;109.51;;
64077;Laerm;51039;49.696;10.808;2023-07-31T12:13:30;94.43;-47.77;110.34;;
64077;Laerm;51039;49.696;10.808;2023-07-31T12:15:57;98.66;-63.10;113.41;;
64077;Laerm;51039;49.696;10.808;2023-07-31T12:18:25;90.24;-36.81;109.14;;
64077;Laerm;51039;49.696;10.808;2023-07-31T12:20:59;66.07;-331.32;91.15;;
64077;Laerm;51039;49.696;10.808;2023-07-31T12:23:27;13.61;-331.32;49.39;;
64077;Laerm;51039;49.696;10.808;2023-07-31T12:26:15;43.98;-224.38;79.49;;
64077;Laerm;51039;49.696;10.808;2023-07-31T12:28:48;54.46;-329.56;80.51;;
64077;Laerm;51039;49.696;10.808;2023-07-31T12:31:16;104.93;-334.33;114.00;;
64077;Laerm;51039;49.696;10.808;2023-07-31T12:33:46;112.18;103.58;114.49;;
64077;Laerm;51039;49.696;10.808;2023-07-31T12:36:21;109.19;31.43;114.09;;
64077;Laerm;51039;49.696;10.808;2023-07-31T12:38:47;104.15;-11.39;113.52;;
64077;Laerm;51039;49.696;10.808;2023-07-31T12:41:13;99.66;-24.78;111.01;;
64077;Laerm;51039;49.696;10.808;2023-07-31T12:43:40;106.91;-45.70;114.18;;
64077;Laerm;51039;49.696;10.808;2023-07-31T12:46:06;112.79;101.49;114.50;;
64077;Laerm;51039;49.696;10.808;2023-07-31T12:48:33;111.70;45.93;114.69;;
64077;Laerm;51039;49.696;10.808;2023-07-31T12:50:59;106.18;44.87;114.38;;
64077;Laerm;51039;49.696;10.808;2023-07-31T12:53:24;107.92;44.89;114.42;;
64077;Laerm;51039;49.696;10.808;2023-07-31T12:55:50;97.84;44.61;114.61;;
64077;Laerm;51039;49.696;10.808;2023-07-31T12:58:15;86.65;44.69;113.34;;
64077;Laerm;51039;49.696;10.808;2023-07-31T13:00:41;108.37;28.67;114.57;;
64077;Laerm;51039;49.696;10.808;2023-07-31T13:03:06;111.52;45.84;114.50;;
64077;Laerm;51039;49.696;10.808;2023-07-31T13:05:32;108.96;-79.14;114.36;;
64077;Laerm;51039;49.696;10.808;2023-07-31T13:07:57;110.05;-148.86;114.45;;
64077;Laerm;51039;49.696;10.808;2023-07-31T13:10:23;110.72;-27.09;114.43;;
64077;Laerm;51039;49.696;10.808;2023-07-31T13:12:49;109.83;-151.94;114.39;;
64077;Laerm;51039;49.696;10.808;2023-07-31T13:15:15;106.31;44.85;114.34;;
64077;Laerm;51039;49.696;10.808;2023-07-31T13:17:40;101.80;44.66;113.68;;
64077;Laerm;51039;49.696;10.808;2023-07-31T13:20:06;101.96;44.61;112.89;;
64077;Laerm;51039;49.696;10.808;2023-07-31T13:22:32;103.59;44.86;113.38;;
64077;Laerm;51039;49.696;10.808;2023-07-31T13:24:57;107.93;45.03;114.44;;
64077;Laerm;51039;49.696;10.808;2023-07-31T13:27:23;108.19;45.07;114.34;;
64077;Laerm;51039;49.696;10.808;2023-07-31T13:29:50;103.78;-9.16;114.44;;
64077;Laerm;51039;49.696;10.808;2023-07-31T13:32:16;64.70;44.69;88.52;;